Time;durP1;ratioP1;P1;durP2;ratioP2;P2;SDS_P1;SDS_P2;PMS_P1;PMS_P2;Temp;Humidity;BMP_temperature;BMP_pressure;BME280_temperature;BME280_humidity;BME280_pressure;Samples;Min_cycle;Max_cycle;Signal;HPM_P1;HPM_P2
2022/04/13 00:02:01;;;;;;;8.57;5.85;;;11.90;58.00;;;;;;6245183;23;20568;-45
2022/04/13 00:04:28;;;;;;;7.47;5.30;;;11.90;58.10;;;;;;6243748;23;20004;-45
2022/04/13 00:06:54;;;;;;;8.30;5.78;;;11.90;58.60;;;;;;6245482;23;20004;-46
2022/04/13 00:09:24;;;;;;;9.43;5.15;;;11.90;58.20;;;;;;6245186;23;20023;-44
2022/04/13 00:11:52;;;;;;;7.88;5.55;;;11.90;58.00;;;;;;6218654;23;20004;-45
2022/04/13 00:14:22;;;;;;;9.23;5.53;;;11.90;58.50;;;;;;6245782;23;20428;-45
2022/04/13 00:16:49;;;;;;;14.60;4.80;;;11.90;58.80;;;;;;6245382;23;20005;-44
2022/04/13 00:19:15;;;;;;;8.25;5.60;;;11.80;58.90;;;;;;6245096;23;20070;-48
2022/04/13 00:21:42;;;;;;;7.82;5.95;;;11.90;58.90;;;;;;6244938;23;20396;-45
2022/04/13 00:24:09;;;;;;;7.80;5.97;;;11.80;59.30;;;;;;6245022;23;20004;-45
2022/04/13 00:26:35;;;;;;;8.15;5.70;;;11.80;59.50;;;;;;6243488;23;20004;-43
2022/04/13 00:29:02;;;;;;;11.00;5.18;;;11.80;59.60;;;;;;6245099;23;20760;-50
2022/04/13 00:31:29;;;;;;;7.95;5.68;;;11.70;60.10;;;;;;6246569;23;20095;-48
2022/04/13 00:33:56;;;;;;;7.70;5.50;;;11.70;59.90;;;;;;6247384;23;20307;-47
2022/04/13 00:36:23;;;;;;;6.50;5.40;;;11.70;60.10;;;;;;6221279;23;20004;-45
2022/04/13 00:38:48;;;;;;;8.38;5.47;;;11.70;60.20;;;;;;6220201;23;20082;-45
2022/04/13 00:41:17;;;;;;;8.63;5.45;;;11.60;60.50;;;;;;6246907;23;20280;-44
2022/04/13 00:43:44;;;;;;;9.50;5.70;;;11.60;60.30;;;;;;6196740;23;20015;-44
2022/04/13 00:46:11;;;;;;;10.00;6.22;;;11.70;60.40;;;;;;6245899;23;20007;-44
2022/04/13 00:48:42;;;;;;;7.95;5.53;;;11.70;60.70;;;;;;6247523;23;20004;-46
2022/04/13 00:51:08;;;;;;;8.10;5.55;;;11.60;60.80;;;;;;6246881;23;20012;-45
2022/04/13 00:53:35;;;;;;;8.95;5.72;;;11.60;60.60;;;;;;6247530;23;20383;-45
2022/04/13 00:56:03;;;;;;;7.88;5.28;;;11.70;60.50;;;;;;6247100;23;20407;-45
2022/04/13 00:58:32;;;;;;;8.55;5.53;;;11.70;60.50;;;;;;6221082;23;20004;-49
2022/04/13 01:01:02;;;;;;;8.15;5.55;;;11.70;60.40;;;;;;6246104;23;20785;-47
2022/04/13 01:03:30;;;;;;;8.98;5.82;;;11.70;60.80;;;;;;6247118;23;20295;-49
2022/04/13 01:05:56;;;;;;;8.80;5.60;;;11.70;60.50;;;;;;6246750;23;20022;-47
2022/04/13 01:08:25;;;;;;;7.35;4.95;;;11.70;60.90;;;;;;6246330;23;20079;-47
2022/04/13 01:10:51;;;;;;;10.30;6.40;;;11.70;60.80;;;;;;6246540;23;20047;-44
2022/04/13 01:13:17;;;;;;;7.88;5.50;;;11.70;60.70;;;;;;6246989;23;20000;-46
2022/04/13 01:15:45;;;;;;;7.95;5.57;;;11.70;61.20;;;;;;6247191;23;20016;-47
2022/04/13 01:18:13;;;;;;;7.45;5.22;;;11.70;60.90;;;;;;6245953;23;20300;-50
2022/04/13 01:20:54;;;;;;;7.82;5.45;;;11.70;61.20;;;;;;6246036;23;20011;-50
2022/04/13 01:23:24;;;;;;;10.23;5.65;;;11.70;60.80;;;;;;6247168;23;20001;-48
2022/04/13 01:25:52;;;;;;;8.98;6.32;;;11.70;60.80;;;;;;6246628;23;20071;-50
2022/04/13 01:28:18;;;;;;;9.85;5.90;;;11.80;60.80;;;;;;6246798;23;20078;-46
2022/04/13 01:30:45;;;;;;;12.68;5.90;;;11.80;60.80;;;;;;6246135;23;20300;-46
2022/04/13 01:33:12;;;;;;;11.48;6.40;;;11.70;61.10;;;;;;6246181;23;20299;-47
2022/04/13 01:35:39;;;;;;;8.65;6.35;;;11.60;61.50;;;;;;6245854;23;20012;-46
2022/04/13 01:38:06;;;;;;;8.02;5.40;;;11.60;61.70;;;;;;6246594;23;20004;-48
2022/04/13 01:40:33;;;;;;;9.20;5.85;;;11.50;61.90;;;;;;6246165;23;20004;-45
2022/04/13 01:43:00;;;;;;;7.40;6.55;;;11.40;62.00;;;;;;6246511;23;20004;-46
2022/04/13 01:45:27;;;;;;;8.88;5.85;;;11.40;62.50;;;;;;6246423;23;20012;-45
2022/04/13 01:47:53;;;;;;;8.90;5.43;;;11.30;62.70;;;;;;6246789;23;20079;-44
2022/04/13 01:50:20;;;;;;;10.00;5.70;;;11.20;63.10;;;;;;6246688;23;20032;-47
2022/04/13 01:52:48;;;;;;;12.25;7.15;;;11.20;63.60;;;;;;6246686;23;20008;-46
2022/04/13 01:55:15;;;;;;;9.65;6.85;;;11.10;63.60;;;;;;6246555;23;20004;-46
2022/04/13 01:57:42;;;;;;;9.80;6.55;;;11.10;64.10;;;;;;6246713;23;20100;-45
2022/04/13 02:00:13;;;;;;;8.93;6.00;;;11.10;64.10;;;;;;6245950;23;20011;-47
2022/04/13 02:02:42;;;;;;;9.32;6.75;;;11.10;64.00;;;;;;6246804;23;20011;-44
2022/04/13 02:05:11;;;;;;;9.82;6.72;;;11.10;64.00;;;;;;6246399;23;20004;-45
2022/04/13 02:07:37;;;;;;;8.77;5.50;;;11.00;64.40;;;;;;6219659;23;20015;-47
2022/04/13 02:10:09;;;;;;;9.95;6.47;;;11.00;64.70;;;;;;6246183;23;20007;-44
2022/04/13 02:12:37;;;;;;;10.23;5.93;;;10.90;64.60;;;;;;6246251;23;20083;-48
2022/04/13 02:15:05;;;;;;;8.35;6.30;;;10.90;64.90;;;;;;6244592;23;20035;-45
2022/04/13 02:17:31;;;;;;;10.70;6.53;;;10.90;64.90;;;;;;6246414;23;20063;-46
2022/04/13 02:20:01;;;;;;;9.32;5.50;;;10.90;65.10;;;;;;6246456;23;20000;-44
2022/04/13 02:22:31;;;;;;;8.05;5.93;;;10.90;65.20;;;;;;6246301;23;20000;-45
2022/04/13 02:25:05;;;;;;;9.90;7.05;;;10.90;65.30;;;;;;6246033;23;20008;-44
2022/04/13 02:27:32;;;;;;;8.23;6.72;;;10.90;65.40;;;;;;6219504;23;20020;-44
2022/04/13 02:29:58;;;;;;;8.40;5.93;;;10.80;65.50;;;;;;6245945;22;20000;-44
2022/04/13 02:32:26;;;;;;;7.07;6.03;;;10.90;65.30;;;;;;6246207;23;20016;-45
2022/04/13 02:34:53;;;;;;;7.20;5.78;;;10.80;65.50;;;;;;6219806;23;20016;-47
2022/04/13 02:37:22;;;;;;;9.57;6.28;;;10.80;65.60;;;;;;6244889;23;20392;-45
2022/04/13 02:39:49;;;;;;;10.27;6.82;;;10.80;65.70;;;;;;6246056;23;20008;-45
2022/04/13 02:42:15;;;;;;;9.70;6.18;;;10.80;65.80;;;;;;6220044;23;20354;-45
2022/04/13 02:44:43;;;;;;;11.10;6.50;;;10.80;65.90;;;;;;6219077;23;20028;-45
2022/04/13 02:47:11;;;;;;;8.27;6.53;;;10.80;66.00;;;;;;6245830;23;20050;-44
2022/04/13 02:49:38;;;;;;;7.88;6.55;;;10.70;66.30;;;;;;6219694;23;20020;-45
2022/04/13 02:52:07;;;;;;;10.10;6.38;;;10.70;66.40;;;;;;6246074;23;20027;-45
2022/04/13 02:54:34;;;;;;;11.47;7.60;;;10.70;66.30;;;;;;6245724;23;20062;-47
2022/04/13 02:57:01;;;;;;;12.43;6.60;;;10.70;66.70;;;;;;6246143;23;20004;-45
2022/04/13 02:59:27;;;;;;;10.77;7.20;;;10.60;66.90;;;;;;6245673;23;20079;-45
2022/04/13 03:01:53;;;;;;;8.57;6.30;;;10.70;66.80;;;;;;6246052;23;20362;-46
2022/04/13 03:04:20;;;;;;;8.70;6.63;;;10.60;67.10;;;;;;6246206;23;20008;-45
2022/04/13 03:06:47;;;;;;;9.35;7.13;;;10.60;66.70;;;;;;6245404;23;20014;-45
2022/04/13 03:09:13;;;;;;;9.80;7.20;;;10.60;67.10;;;;;;6219100;23;20000;-45
2022/04/13 03:11:40;;;;;;;10.07;6.57;;;10.50;67.10;;;;;;6219493;23;20035;-45
2022/04/13 03:14:06;;;;;;;10.95;7.53;;;10.50;67.30;;;;;;6245992;23;20035;-45
2022/04/13 03:16:33;;;;;;;10.27;8.40;;;10.50;67.50;;;;;;6245974;23;19996;-45
2022/04/13 03:19:02;;;;;;;11.05;7.10;;;10.40;67.80;;;;;;6243637;23;19993;-45
2022/04/13 03:21:29;;;;;;;9.18;6.82;;;10.40;68.20;;;;;;6245186;23;20004;-45
2022/04/13 03:23:55;;;;;;;10.02;7.57;;;10.40;68.30;;;;;;6243392;23;20004;-45
2022/04/13 03:26:22;;;;;;;10.90;7.72;;;10.30;68.80;;;;;;6219350;23;20074;-45
2022/04/13 03:28:52;;;;;;;8.43;7.03;;;10.30;68.80;;;;;;6245061;23;20362;-44
2022/04/13 03:31:18;;;;;;;9.80;8.20;;;10.30;68.60;;;;;;6244863;23;20016;-44
2022/04/13 03:33:45;;;;;;;10.43;7.50;;;10.30;68.80;;;;;;6245174;23;19999;-44
2022/04/13 03:36:13;;;;;;;13.30;8.73;;;10.30;69.00;;;;;;6243239;23;20510;-44
2022/04/13 03:38:40;;;;;;;9.20;7.40;;;10.20;69.00;;;;;;6244748;23;20000;-47
2022/04/13 03:41:05;;;;;;;10.15;7.10;;;10.20;69.30;;;;;;6218855;23;20010;-46
2022/04/13 03:43:32;;;;;;;11.15;7.32;;;10.10;69.40;;;;;;6245265;23;20023;-45
2022/04/13 03:46:01;;;;;;;8.73;7.15;;;10.10;69.50;;;;;;6218611;23;20015;-46
2022/04/13 03:48:30;;;;;;;10.85;8.15;;;10.00;69.90;;;;;;6245955;23;20007;-45
2022/04/13 03:50:57;;;;;;;12.35;7.57;;;10.00;70.00;;;;;;6219294;23;20008;-47
2022/04/13 03:53:24;;;;;;;11.52;8.07;;;10.00;70.00;;;;;;6219446;23;20653;-45
2022/04/13 03:55:50;;;;;;;12.52;7.88;;;10.00;70.20;;;;;;6244821;23;20083;-45
2022/04/13 03:58:17;;;;;;;10.07;7.97;;;10.00;70.30;;;;;;6246131;23;20040;-44
2022/04/13 04:00:44;;;;;;;10.95;7.57;;;9.90;70.30;;;;;;6245354;23;20008;-45
2022/04/13 04:03:11;;;;;;;9.20;6.95;;;10.00;70.30;;;;;;6218552;23;20018;-45
2022/04/13 04:05:38;;;;;;;12.07;7.93;;;9.90;70.20;;;;;;6244841;23;20075;-45
2022/04/13 04:08:07;;;;;;;9.85;7.32;;;9.90;70.40;;;;;;6245866;23;20051;-45
2022/04/13 04:10:34;;;;;;;10.88;7.45;;;9.90;70.40;;;;;;6218525;23;19996;-45
2022/04/13 04:13:01;;;;;;;8.50;7.47;;;9.90;70.40;;;;;;6245277;23;20414;-45
2022/04/13 04:15:27;;;;;;;10.18;8.30;;;9.90;70.50;;;;;;6219038;23;20011;-45
2022/04/13 04:17:54;;;;;;;9.00;6.88;;;9.90;71.00;;;;;;6245192;23;20015;-45
2022/04/13 04:20:21;;;;;;;9.55;7.72;;;9.90;71.10;;;;;;6244989;23;20358;-46
2022/04/13 04:22:48;;;;;;;9.85;7.13;;;9.80;71.40;;;;;;6245247;23;20004;-45
2022/04/13 04:25:15;;;;;;;10.27;7.72;;;9.80;71.40;;;;;;6218445;23;20004;-45
2022/04/13 04:27:41;;;;;;;11.15;7.95;;;9.70;71.60;;;;;;6244830;23;20004;-45
2022/04/13 04:30:08;;;;;;;9.90;8.13;;;9.70;71.60;;;;;;6244538;23;20008;-45
2022/04/13 04:32:34;;;;;;;11.43;8.30;;;9.70;71.70;;;;;;6244818;23;20023;-47
2022/04/13 04:35:03;;;;;;;12.25;8.63;;;9.70;71.70;;;;;;6244974;23;20004;-45
2022/04/13 04:37:33;;;;;;;11.32;7.85;;;9.70;72.00;;;;;;6218595;23;20074;-45
2022/04/13 04:40:00;;;;;;;11.77;8.15;;;9.70;71.90;;;;;;6243323;23;20007;-45
2022/04/13 04:42:27;;;;;;;10.50;8.40;;;9.70;72.10;;;;;;6244294;23;20099;-45
2022/04/13 04:44:57;;;;;;;9.98;7.63;;;9.70;72.00;;;;;;6244742;23;20008;-47
2022/04/13 04:47:24;;;;;;;10.57;7.90;;;9.60;72.00;;;;;;6244759;23;20000;-45
2022/04/13 04:49:52;;;;;;;11.15;8.32;;;9.60;72.10;;;;;;6244695;23;20331;-45
2022/04/13 04:52:17;;;;;;;14.25;8.30;;;9.60;72.20;;;;;;6244798;23;20000;-48
2022/04/13 04:54:43;;;;;;;11.23;7.78;;;9.60;72.40;;;;;;6244767;23;20012;-49
2022/04/13 04:57:09;;;;;;;10.27;7.97;;;9.60;72.20;;;;;;6219010;23;20004;-45
2022/04/13 04:59:36;;;;;;;9.80;7.90;;;9.50;72.60;;;;;;6244324;23;20091;-45
2022/04/13 05:02:03;;;;;;;10.65;8.40;;;9.60;72.80;;;;;;6245353;23;20062;-47
2022/04/13 05:04:29;;;;;;;9.27;7.38;;;9.50;72.80;;;;;;6218328;23;20058;-45
2022/04/13 05:06:56;;;;;;;10.95;8.50;;;9.50;72.90;;;;;;6245083;23;20000;-47
2022/04/13 05:09:25;;;;;;;9.32;7.43;;;9.60;72.90;;;;;;6244855;23;20004;-45
2022/04/13 05:11:52;;;;;;;13.02;8.38;;;9.70;72.80;;;;;;6245359;23;20023;-46
2022/04/13 05:14:20;;;;;;;11.25;7.72;;;9.70;73.00;;;;;;6245121;23;20031;-47
2022/04/13 05:16:47;;;;;;;9.98;8.48;;;9.70;72.90;;;;;;6245968;23;20067;-46
2022/04/13 05:19:15;;;;;;;10.80;7.68;;;9.70;72.90;;;;;;6220446;23;20012;-45
2022/04/13 05:21:42;;;;;;;11.25;7.95;;;9.70;72.90;;;;;;6246367;23;20008;-47
2022/04/13 05:24:11;;;;;;;8.98;7.43;;;9.80;72.90;;;;;;6246439;23;20030;-45
2022/04/13 05:26:39;;;;;;;8.80;7.72;;;9.80;72.90;;;;;;6246547;23;20123;-48
2022/04/13 05:29:05;;;;;;;10.18;8.13;;;9.90;72.80;;;;;;6246677;23;19996;-44
2022/04/13 05:31:31;;;;;;;9.85;8.02;;;9.90;72.50;;;;;;6246308;23;20079;-46
2022/04/13 05:33:57;;;;;;;8.68;7.30;;;10.00;72.40;;;;;;6246676;23;20035;-46
2022/04/13 05:36:24;;;;;;;8.90;7.90;;;10.00;72.30;;;;;;6246537;23;20059;-46
2022/04/13 05:38:51;;;;;;;12.13;10.30;;;10.10;72.20;;;;;;6246633;23;20035;-45
2022/04/13 05:41:18;;;;;;;9.98;8.35;;;10.20;72.10;;;;;;6246464;23;20003;-49
2022/04/13 05:43:45;;;;;;;9.95;8.73;;;10.20;72.20;;;;;;6219162;23;20004;-47
2022/04/13 05:46:14;;;;;;;11.70;9.38;;;10.30;72.10;;;;;;6245356;23;20008;-45
2022/04/13 05:48:41;;;;;;;13.10;8.68;;;10.30;72.10;;;;;;6245772;23;20035;-46
2022/04/13 05:51:09;;;;;;;11.55;8.48;;;10.40;72.00;;;;;;6246831;23;20008;-45
2022/04/13 05:53:36;;;;;;;12.32;8.63;;;10.40;72.10;;;;;;6246161;23;20019;-48
2022/04/13 05:56:04;;;;;;;11.85;7.97;;;10.50;71.90;;;;;;6219706;23;20018;-50
2022/04/13 05:58:31;;;;;;;9.93;8.93;;;10.50;71.80;;;;;;6246938;23;20000;-50
2022/04/13 06:00:58;;;;;;;12.43;8.63;;;10.60;71.90;;;;;;6246090;23;20299;-45
2022/04/13 06:03:25;;;;;;;9.90;8.07;;;10.70;72.00;;;;;;6246884;23;20312;-48
2022/04/13 06:05:55;;;;;;;10.70;7.93;;;10.90;71.90;;;;;;6245742;23;20001;-45
2022/04/13 06:08:23;;;;;;;8.95;7.97;;;10.90;71.70;;;;;;6246077;23;20396;-47
2022/04/13 06:10:50;;;;;;;10.48;8.18;;;11.10;71.80;;;;;;6219917;23;20079;-46
2022/04/13 06:13:19;;;;;;;10.30;8.98;;;11.20;71.30;;;;;;6246174;23;20019;-46
2022/04/13 06:15:46;;;;;;;10.95;9.35;;;11.30;70.50;;;;;;6246179;23;20040;-47
2022/04/13 06:18:12;;;;;;;10.80;8.32;;;11.40;70.20;;;;;;6247180;23;20024;-45
2022/04/13 06:20:38;;;;;;;14.32;8.82;;;11.50;70.40;;;;;;6245870;23;20407;-47
2022/04/13 06:23:05;;;;;;;12.43;9.73;;;11.60;70.50;;;;;;6245331;23;20008;-48
2022/04/13 06:25:32;;;;;;;11.57;9.07;;;11.70;70.60;;;;;;6244468;23;20015;-46
2022/04/13 06:28:01;;;;;;;12.27;8.25;;;11.70;70.90;;;;;;6246238;23;20035;-49
2022/04/13 06:30:27;;;;;;;10.75;9.20;;;11.80;71.00;;;;;;6245858;23;20024;-49
2022/04/13 06:32:54;;;;;;;12.00;8.77;;;11.90;70.90;;;;;;6244969;23;20004;-45
2022/04/13 06:35:23;;;;;;;11.80;9.27;;;11.90;70.90;;;;;;6245977;23;20028;-45
2022/04/13 06:37:51;;;;;;;;;;;11.90;70.90;;;;;;6246892;23;20004;-47
2022/04/13 06:40:18;;;;;;;9.80;8.35;;;12.00;71.00;;;;;;6246235;23;19931;-46
2022/04/13 06:42:47;;;;;;;9.82;8.45;;;12.10;71.30;;;;;;6244794;23;20047;-47
2022/04/13 06:45:15;;;;;;;14.43;9.73;;;12.30;71.50;;;;;;6246019;23;20008;-50
2022/04/13 06:47:42;;;;;;;10.75;8.77;;;12.50;71.50;;;;;;6245541;23;20075;-49
2022/04/13 06:50:10;;;;;;;15.00;9.95;;;12.70;71.50;;;;;;6246352;23;19996;-47
2022/04/13 06:52:38;;;;;;;12.10;9.75;;;12.90;70.90;;;;;;6219735;23;20124;-45
2022/04/13 06:55:09;;;;;;;11.55;9.15;;;13.10;70.90;;;;;;6219175;23;20008;-48
2022/04/13 06:57:40;;;;;;;14.70;9.68;;;13.40;71.10;;;;;;6219484;23;20008;-44
2022/04/13 07:00:09;;;;;;;13.88;9.70;;;13.60;70.50;;;;;;6218742;23;20018;-45
2022/04/13 07:02:37;;;;;;;12.75;9.48;;;13.90;69.90;;;;;;6220014;23;20071;-48
2022/04/13 07:05:04;;;;;;;10.88;9.77;;;14.10;69.80;;;;;;6219161;23;20012;-47
2022/04/13 07:07:31;;;;;;;18.60;11.20;;;14.40;70.10;;;;;;6219425;23;20000;-44
2022/04/13 07:10:02;;;;;;;12.68;10.30;;;14.50;69.40;;;;;;6218833;23;20031;-47
2022/04/13 07:12:44;;;;;;;10.63;9.57;;;14.60;69.80;;;;;;6245986;23;20011;-47
2022/04/13 07:15:14;;;;;;;11.73;9.10;;;14.70;69.90;;;;;;6245816;23;20077;-46
2022/04/13 07:17:39;;;;;;;14.50;11.13;;;14.70;70.30;;;;;;6245250;23;20015;-46
2022/04/13 07:20:06;;;;;;;12.57;9.70;;;14.90;70.20;;;;;;6194578;23;20403;-43
2022/04/13 07:22:32;;;;;;;11.77;8.48;;;14.80;70.40;;;;;;6243687;23;20015;-46
2022/04/13 07:24:59;;;;;;;12.60;9.10;;;14.90;70.60;;;;;;6245757;23;20011;-44
2022/04/13 07:27:26;;;;;;;12.13;9.18;;;14.80;71.10;;;;;;6246132;23;20000;-45
2022/04/13 07:29:53;;;;;;;13.20;9.60;;;14.80;71.70;;;;;;6218462;23;20000;-45
2022/04/13 07:32:19;;;;;;;11.40;10.20;;;14.90;71.60;;;;;;6245716;23;20008;-45
2022/04/13 07:34:48;;;;;;;15.38;10.23;;;15.00;72.00;;;;;;6244826;23;20031;-46
2022/04/13 07:37:15;;;;;;;12.13;10.32;;;15.30;72.50;;;;;;6245426;23;20015;-45
2022/04/13 07:39:41;;;;;;;13.00;9.68;;;15.70;71.50;;;;;;6244592;23;20015;-47
2022/04/13 07:42:08;;;;;;;13.98;10.77;;;16.00;70.80;;;;;;6245352;23;20031;-45
2022/04/13 07:44:35;;;;;;;10.70;8.90;;;16.00;69.70;;;;;;6244744;23;20534;-45
2022/04/13 07:47:00;;;;;;;9.15;7.60;;;15.90;70.10;;;;;;6244926;23;20004;-46
2022/04/13 07:49:27;;;;;;;11.85;8.50;;;15.90;70.70;;;;;;6244984;23;20046;-48
2022/04/13 07:52:00;;;;;;;10.82;8.70;;;15.90;70.20;;;;;;6244772;23;20012;-48
2022/04/13 07:54:27;;;;;;;11.15;8.32;;;15.70;70.90;;;;;;6244537;23;20019;-45
2022/04/13 07:56:53;;;;;;;13.77;9.18;;;15.60;71.30;;;;;;6243723;23;20031;-47
2022/04/13 07:59:20;;;;;;;14.90;9.20;;;15.80;71.60;;;;;;6243504;23;20019;-45
2022/04/13 08:01:47;;;;;;;13.20;9.40;;;15.90;71.10;;;;;;6244753;23;20008;-46
2022/04/13 08:04:13;;;;;;;14.48;10.20;;;16.20;70.90;;;;;;6244890;23;20009;-44
2022/04/13 08:06:40;;;;;;;13.15;9.93;;;16.60;71.00;;;;;;6244678;23;20084;-45
2022/04/13 08:09:07;;;;;;;16.38;9.85;;;16.90;70.20;;;;;;6245152;23;20000;-45
2022/04/13 08:11:37;;;;;;;12.93;9.13;;;16.80;69.20;;;;;;6243349;23;20015;-45
2022/04/13 08:14:04;;;;;;;12.82;9.38;;;16.70;69.60;;;;;;6244945;23;20011;-45
2022/04/13 08:16:31;;;;;;;14.20;9.68;;;16.60;70.80;;;;;;6245771;23;20000;-44
2022/04/13 08:18:58;;;;;;;16.27;8.80;;;16.60;71.00;;;;;;6244221;23;20015;-45
2022/04/13 08:21:25;;;;;;;12.00;8.90;;;16.60;71.30;;;;;;6245526;23;20004;-47
2022/04/13 08:23:51;;;;;;;11.35;7.72;;;16.80;71.40;;;;;;6245303;23;20008;-46
2022/04/13 08:26:18;;;;;;;11.15;7.95;;;17.10;70.60;;;;;;6245572;23;20561;-44
2022/04/13 08:28:45;;;;;;;12.00;7.47;;;17.10;70.20;;;;;;6244964;23;20008;-45
2022/04/13 08:31:12;;;;;;;9.75;6.85;;;17.30;70.30;;;;;;6244881;23;20016;-45
2022/04/13 08:33:38;;;;;;;11.07;6.88;;;17.50;69.40;;;;;;6245440;23;20001;-46
2022/04/13 08:36:04;;;;;;;11.82;7.18;;;17.50;69.80;;;;;;6245277;22;20268;-45
2022/04/13 08:38:31;;;;;;;11.60;6.93;;;17.60;69.50;;;;;;6194014;23;20014;-46
2022/04/13 08:41:02;;;;;;;13.48;8.13;;;17.80;69.10;;;;;;6244342;23;20004;-49
2022/04/13 08:43:48;;;;;;;10.75;6.88;;;18.10;68.60;;;;;;6218908;23;20004;-45
2022/04/13 08:46:35;;;;;;;12.52;7.25;;;18.40;67.00;;;;;;6219893;23;20011;-44
2022/04/13 08:49:05;;;;;;;9.90;6.63;;;19.20;66.80;;;;;;6245178;23;19996;-44
2022/04/13 08:51:34;;;;;;;9.85;6.13;;;19.10;65.00;;;;;;6219203;23;20004;-44
2022/04/13 08:54:19;;;;;;;;;;;19.30;64.80;;;;;;6248057;23;19997;-45
2022/04/13 08:56:50;;;;;;;10.35;4.97;;;19.70;64.30;;;;;;6247027;23;20205;-44
2022/04/13 08:59:39;;;;;;;8.25;5.70;;;19.80;62.90;;;;;;6220277;23;20383;-45
2022/04/13 09:02:23;;;;;;;;;;;19.80;63.40;;;;;;6247236;23;20000;-44
2022/04/13 09:04:53;;;;;;;6.72;4.88;;;20.00;62.40;;;;;;6247056;23;19904;-44
2022/04/13 09:07:20;;;;;;;;;;;20.10;61.40;;;;;;6247744;23;20008;-45
2022/04/13 09:09:51;;;;;;;15.40;6.25;;;20.30;62.70;;;;;;6219846;23;19908;-47
2022/04/13 09:12:19;;;;;;;7.03;5.68;;;20.50;62.40;;;;;;6247045;23;20011;-44
2022/04/13 09:14:46;;;;;;;11.05;5.68;;;20.60;61.40;;;;;;6220220;23;20147;-47
2022/04/13 09:17:15;;;;;;;8.52;5.25;;;20.50;61.50;;;;;;6246407;23;20035;-43
2022/04/13 09:19:44;;;;;;;11.68;6.30;;;20.60;62.30;;;;;;6245909;23;20082;-44
2022/04/13 09:22:11;;;;;;;8.60;6.07;;;20.70;61.90;;;;;;6246886;23;20004;-45
2022/04/13 09:24:38;;;;;;;10.48;7.18;;;20.90;61.90;;;;;;6246772;23;20030;-45
2022/04/13 09:27:05;;;;;;;10.50;6.13;;;21.00;61.10;;;;;;6247153;23;20000;-44
2022/04/13 09:29:32;;;;;;;9.82;5.97;;;21.20;60.20;;;;;;6246893;23;20055;-48
2022/04/13 09:32:01;;;;;;;10.63;6.88;;;21.30;60.30;;;;;;6246041;23;20015;-44
2022/04/13 09:34:30;;;;;;;13.95;7.10;;;21.30;60.80;;;;;;6246374;23;20015;-42
2022/04/13 09:36:56;;;;;;;11.18;7.38;;;21.40;60.20;;;;;;6246716;23;20008;-43
2022/04/13 09:39:23;;;;;;;10.75;6.60;;;21.50;58.50;;;;;;6246791;23;20384;-44
2022/04/13 09:41:51;;;;;;;10.52;7.82;;;21.60;58.80;;;;;;6246830;23;20314;-44
2022/04/13 09:44:20;;;;;;;11.82;7.22;;;21.50;58.70;;;;;;6246415;23;20004;-42
2022/04/13 09:46:46;;;;;;;12.32;7.25;;;21.40;59.20;;;;;;6220066;23;20016;-42
2022/04/13 09:49:16;;;;;;;13.98;7.63;;;21.70;59.40;;;;;;6246969;23;20004;-41
2022/04/13 09:51:48;;;;;;;9.18;6.03;;;21.80;58.90;;;;;;6246543;23;20015;-45
2022/04/13 09:54:16;;;;;;;10.68;6.78;;;22.20;58.50;;;;;;6220028;23;20098;-44
2022/04/13 09:56:49;;;;;;;10.13;6.32;;;22.20;57.70;;;;;;6246120;23;20269;-42
2022/04/13 09:59:27;;;;;;;9.90;6.07;;;21.70;58.90;;;;;;6219587;23;20004;-42
2022/04/13 10:01:54;;;;;;;11.93;6.10;;;21.60;59.40;;;;;;6220138;23;20086;-43
2022/04/13 10:04:29;;;;;;;8.57;5.72;;;21.50;59.30;;;;;;6246088;23;20007;-44
2022/04/13 10:07:17;;;;;;;11.05;7.25;;;21.00;59.90;;;;;;6219709;23;20016;-45
2022/04/13 10:09:44;;;;;;;12.93;7.00;;;20.90;61.20;;;;;;6245818;23;20139;-45
2022/04/13 10:12:11;;;;;;;8.65;4.28;;;20.90;61.20;;;;;;6245020;23;20306;-43
2022/04/13 10:14:38;;;;;;;8.15;4.32;;;20.90;62.20;;;;;;6218822;23;20012;-43
2022/04/13 10:17:20;;;;;;;9.70;4.38;;;20.90;60.90;;;;;;6245843;23;20000;-45
2022/04/13 10:19:58;;;;;;;6.95;3.80;;;20.90;61.50;;;;;;6246062;23;20008;-43
2022/04/13 10:22:25;;;;;;;7.83;3.77;;;20.70;61.90;;;;;;6246498;23;20020;-43
2022/04/13 10:24:52;;;;;;;11.27;4.22;;;20.70;62.10;;;;;;6244914;23;20040;-42
2022/04/13 10:27:24;;;;;;;5.90;4.03;;;20.60;61.10;;;;;;6246584;23;20004;-43
2022/04/13 10:29:51;;;;;;;8.70;4.75;;;20.60;62.10;;;;;;6245853;23;20075;-42
2022/04/13 10:32:22;;;;;;;9.63;5.53;;;20.60;62.60;;;;;;6245057;23;20016;-45
2022/04/13 10:34:52;;;;;;;8.63;4.80;;;20.50;62.80;;;;;;6218510;23;20007;-42
2022/04/13 10:37:21;;;;;;;8.35;5.43;;;20.30;63.20;;;;;;6246056;23;20311;-43
2022/04/13 10:39:49;;;;;;;8.02;5.57;;;19.90;64.30;;;;;;6246371;23;20105;-45
2022/04/13 10:42:20;;;;;;;11.27;6.85;;;19.80;65.20;;;;;;6246208;23;20000;-42
2022/04/13 10:45:03;;;;;;;12.73;5.38;;;19.70;65.10;;;;;;6245842;23;20005;-43
2022/04/13 10:47:49;;;;;;;10.82;6.40;;;19.70;65.30;;;;;;6245888;23;20362;-42
2022/04/13 10:50:20;;;;;;;8.60;4.53;;;20.20;65.30;;;;;;6246289;23;20034;-43
2022/04/13 10:52:59;;;;;;;8.70;3.53;;;20.60;63.80;;;;;;6219490;23;20088;-42
2022/04/13 10:55:27;;;;;;;7.03;4.47;;;21.00;62.00;;;;;;6219318;23;20008;-43
2022/04/13 10:58:25;;;;;;;15.13;4.93;;;21.20;62.80;;;;;;6245618;23;20403;-43
2022/04/13 11:01:02;;;;;;;9.48;4.47;;;21.40;60.20;;;;;;6246232;23;20031;-43
2022/04/13 11:03:34;;;;;;;8.35;4.25;;;21.40;60.90;;;;;;6219243;23;20690;-44
2022/04/13 11:06:02;;;;;;;6.72;4.13;;;21.20;60.60;;;;;;6219242;23;20027;-43
2022/04/13 11:08:54;;;;;;;7.22;4.07;;;21.40;59.60;;;;;;6245585;23;20028;-44
2022/04/13 11:11:23;;;;;;;7.88;3.85;;;21.40;59.10;;;;;;6229265;23;20004;-43
2022/04/13 11:13:51;;;;;;;5.30;3.47;;;21.40;59.60;;;;;;6245067;23;20119;-43
2022/04/13 11:16:21;;;;;;;8.13;4.13;;;21.30;59.60;;;;;;6219201;23;20008;-43
2022/04/13 11:19:06;;;;;;;5.93;3.10;;;21.10;59.00;;;;;;6219012;23;20387;-44
2022/04/13 11:21:34;;;;;;;8.52;4.20;;;21.20;60.50;;;;;;6245703;23;20058;-42
2022/04/13 11:24:04;;;;;;;6.28;4.32;;;21.40;59.50;;;;;;6219605;23;20036;-42
2022/04/13 11:26:35;;;;;;;6.68;3.58;;;21.40;59.70;;;;;;6245701;23;20257;-43
2022/04/13 11:29:21;;;;;;;6.97;3.22;;;21.30;59.10;;;;;;6219419;23;20083;-43
2022/04/13 11:32:14;;;;;;;6.60;3.47;;;21.30;57.90;;;;;;6245711;23;20028;-43
2022/04/13 11:34:56;;;;;;;4.97;3.08;;;21.10;59.10;;;;;;6218857;23;20000;-43
2022/04/13 11:37:43;;;;;;;5.82;3.05;;;21.10;58.60;;;;;;6245591;23;20000;-42
2022/04/13 11:40:22;;;;;;;5.60;3.33;;;21.30;59.00;;;;;;6218944;23;20032;-43
2022/04/13 11:42:50;;;;;;;6.88;3.55;;;21.40;57.20;;;;;;6245676;23;20014;-43
2022/04/13 11:45:18;;;;;;;5.78;2.95;;;21.30;58.20;;;;;;6245568;23;20011;-42
2022/04/13 11:47:53;;;;;;;8.95;3.88;;;20.90;58.30;;;;;;6219691;23;20008;-45
2022/04/13 11:50:24;;;;;;;8.40;3.08;;;20.50;59.50;;;;;;6245101;23;20020;-42
2022/04/13 11:53:06;;;;;;;6.57;3.58;;;20.50;59.80;;;;;;6245321;23;20004;-43
2022/04/13 11:55:59;;;;;;;6.15;3.53;;;20.40;60.40;;;;;;6244892;23;20008;-42
2022/04/13 11:58:30;;;;;;;5.20;2.58;;;20.40;60.10;;;;;;6245222;23;20016;-49
2022/04/13 12:01:21;;;;;;;6.93;2.80;;;20.50;60.20;;;;;;6244724;23;20631;-42
2022/04/13 12:03:49;;;;;;;5.38;3.25;;;20.80;59.10;;;;;;6245359;23;20091;-42
2022/04/13 12:06:26;;;;;;;5.40;2.88;;;20.70;59.10;;;;;;6245488;23;20012;-43
2022/04/13 12:09:10;;;;;;;6.50;2.92;;;20.70;59.30;;;;;;6218957;23;20077;-44
2022/04/13 12:11:46;;;;;;;9.88;4.93;;;20.70;60.40;;;;;;6218578;23;20019;-43
2022/04/13 12:14:38;;;;;;;7.10;3.90;;;20.70;59.90;;;;;;6245265;23;20053;-44
2022/04/13 12:17:08;;;;;;;7.15;3.67;;;20.70;59.70;;;;;;6245139;23;20000;-44
2022/04/13 12:19:37;;;;;;;;;;;20.90;58.80;;;;;;6245903;23;20028;-42
2022/04/13 12:22:24;;;;;;;9.60;4.10;;;21.10;60.10;;;;;;6219205;23;19900;-42
2022/04/13 12:25:10;;;;;;;8.80;4.50;;;21.10;59.60;;;;;;6217618;23;20099;-43
2022/04/13 12:27:38;;;;;;;7.90;3.75;;;21.30;59.50;;;;;;6247265;23;20007;-41
2022/04/13 12:30:22;;;;;;;7.93;4.60;;;21.30;59.20;;;;;;6246988;23;20095;-42
2022/04/13 12:32:49;;;;;;;14.57;5.40;;;20.90;59.60;;;;;;6247361;23;20004;-43
2022/04/13 12:35:16;;;;;;;8.07;4.82;;;20.90;60.90;;;;;;6246346;23;20410;-42
2022/04/13 12:38:00;;;;;;;6.20;3.80;;;20.90;59.20;;;;;;6247573;23;20024;-45
2022/04/13 12:40:28;;;;;;;9.88;4.13;;;21.00;59.50;;;;;;6247520;23;20403;-43
2022/04/13 12:42:59;;;;;;;6.97;3.55;;;20.80;59.90;;;;;;6246655;23;20000;-42
2022/04/13 12:45:30;;;;;;;18.70;4.97;;;20.50;60.60;;;;;;6247040;23;20011;-42
2022/04/13 12:48:02;;;;;;;10.20;5.03;;;20.40;61.10;;;;;;6221011;23;20349;-42
2022/04/13 12:50:29;;;;;;;5.78;3.40;;;20.30;61.90;;;;;;6247225;23;20515;-43
2022/04/13 12:52:59;;;;;;;17.98;14.27;;;20.20;62.90;;;;;;6247052;23;19992;-45
2022/04/13 12:55:26;;;;;;;18.65;16.70;;;20.00;65.10;;;;;;6246888;23;20050;-45